Tomah, WI (54660)

7:42 AM CDT on August 05, 2015 (GMT -0500)
Water Mill | | Change Station
CLOSE
Current Station
Personal Weather Station
Location: Tomah, WI
Elevation: 950 ft
Nearby Weather Stations
Active Advisory: Special Statement

Elev 950 ft 44.05 °N, 90.46 °W | Updated 42 seconds ago

Clear
Clear
62.9 °F
Feels Like 62.9 °F
N
0.0
Wind Variable Wind from NNW
Gusts 0.0 mph

Today
High -- | Low -- °F
--% Chance of Precip.
Yesterday
High -- | Low -- °F
Precip. -- in
5:54 AM 8:20 PM
Waning Gibbous, 67% visible
Pressure 30.06 in
Visibility 10.0 miles
Clouds Few 5000 ft
Dew Point 63 °F
Humidity 100%
Rainfall 0.00 in
Snow Depth Not available.
UV 0.0 out of 12
Pollen 7.40 out of 12
Air Quality Not available.
Flu Activity Not available.
METAR KVOK 051158Z 00000KT 10SM BCFG FEW050 10/10 A3005 RMK AO2A SLP178 51002

More Conditions Fewer Conditions

Pressure 30.06 in
Visibility 10.0 miles
Clouds Few 5000 ft
Dew Point 63 °F
Humidity 100%
Rainfall 0.00 in
Snow Depth Not available.
UV 0.0 out of 12
Pollen 7.40 out of 12
Air Quality Not available.
Flu Activity Not available.
METAR KVOK 051158Z 00000KT 10SM BCFG FEW050 10/10 A3005 RMK AO2A SLP178 51002

More Conditions Fewer Conditions

10-Day Weather Forecast

×

Almanac

Astronomy

Aug. 05, 2015 Rise Set
Actual Time
Civil Twilight
Nautical Twilight
Astronomical Twilight
Moon
Length of Visible Light
Length of Day
Tomorrow will be .
, % of the Moon is Illuminated

Today's Extremes

State Highs State Lows

Community

WunderPhotos

Upload Photos

1,844,175 photos uploaded!

WunderBlogs® & News

Nearby

Air Quality

  Air Quality AQ Index Pollutant
Not available.

Snow Depth

Station Depth Elevation

Earthquake Activity

City Distance Mag. Time & Date
Minimum magnitude displayed is 2.5.

Coastal Water Temperatures

Place Temperature

Stations

Nearby Weather Stations

Station Location Temp. Windchill Dew Point Humidity Wind Precip. Elev Updated Type
                   
Special Statement
Statement as of 7:01 AM CDT on August 05, 2015

... Dense fog in river valleys this morning...

If traveling through river valleys this morning... be prepared for
fog that could suddenly reduce visibilities to 1/4 mile or less.
Expect the fog to dissipate by 9 am.

Slow down and allow extra time to reach your destination. Be
especially cautious near intersections and driveways where most
accidents occur.


Shea


701 am CDT Wed Aug 5 2015

... Dense fog in river valleys this morning...

If traveling through river valleys this morning... be prepared for
fog that could suddenly reduce visibilities to 1/4 mile or less.
Expect the fog to dissipate by 9 am.

Slow down and allow extra time to reach your destination. Be
especially cautious near intersections and driveways where most
accidents occur.


Shea